createdAt,value
2023-05-09T13:25:24.392Z,13024.00
2023-05-09T13:26:25.484Z,12752.00
2023-05-09T13:27:25.555Z,12640.00
2023-05-09T13:28:25.654Z,12668.00
2023-05-09T13:29:25.744Z,12292.00
2023-05-09T13:30:25.907Z,11908.00
2023-05-09T13:31:25.931Z,11488.00
2023-05-09T13:32:26.001Z,10756.00
2023-05-09T13:33:26.839Z,10144.00
2023-05-09T13:34:26.148Z,9476.00
2023-05-09T13:35:26.286Z,8856.00
2023-05-09T13:36:26.333Z,8396.00
2023-05-09T13:37:26.393Z,8088.00
2023-05-09T13:38:26.483Z,7940.00
2023-05-09T13:39:26.560Z,7904.00
2023-05-09T13:40:26.669Z,7892.00
2023-05-09T13:41:26.710Z,7848.00
2023-05-09T13:42:26.801Z,7944.00
2023-05-09T13:43:26.882Z,8024.00
2023-05-09T13:44:26.973Z,8224.00
2023-05-09T13:45:27.076Z,8408.00
2023-05-09T13:46:27.171Z,8520.00
2023-05-09T13:47:27.217Z,8616.00
2023-05-09T13:48:27.283Z,8528.00
2023-05-09T13:49:27.363Z,8312.00
2023-05-09T13:50:27.522Z,8160.00
2023-05-09T13:51:27.534Z,8076.00
2023-05-09T13:52:27.604Z,8132.00
2023-05-09T13:53:27.664Z,8224.00
2023-05-09T13:54:27.812Z,8524.00
2023-05-09T13:55:27.950Z,8804.00
2023-05-09T13:56:27.910Z,9008.00
2023-05-09T13:57:27.993Z,9296.00
2023-05-09T13:58:28.105Z,9472.00
2023-05-09T13:59:28.160Z,9668.00
2023-05-09T14:00:28.248Z,10100.00
2023-05-09T14:01:28.325Z,10236.00
2023-05-09T14:02:28.397Z,10220.00
2023-05-09T14:03:28.536Z,9968.00
2023-05-09T14:04:28.563Z,9572.00
2023-05-09T14:05:28.666Z,9136.00
2023-05-09T14:06:28.714Z,8580.00
2023-05-09T14:07:28.841Z,7968.00
2023-05-09T14:08:28.882Z,7396.00
2023-05-09T14:09:28.977Z,6760.00
2023-05-09T14:10:29.087Z,6100.00
2023-05-09T14:11:29.112Z,5484.00
2023-05-09T14:12:29.206Z,4892.00
2023-05-09T14:13:29.325Z,4372.00
2023-05-09T14:14:29.377Z,4024.00
2023-05-09T14:15:29.453Z,3896.00
2023-05-09T14:16:29.590Z,3976.00
2023-05-09T14:17:29.668Z,4148.00
2023-05-09T14:18:29.710Z,4740.00
2023-05-09T14:19:29.799Z,5604.00
2023-05-09T14:20:29.924Z,6396.00
2023-05-09T14:21:29.954Z,6520.00
2023-05-09T14:22:30.044Z,6148.00
2023-05-09T14:23:30.127Z,5600.00
2023-05-09T14:24:30.210Z,5100.00
2023-05-09T14:25:30.302Z,4760.00
2023-05-09T14:26:30.373Z,4728.00
2023-05-09T14:27:30.443Z,5172.00
2023-05-09T14:28:30.513Z,5384.00
2023-05-09T14:29:30.600Z,5724.00
2023-05-09T14:30:30.713Z,6096.00
2023-05-09T14:31:30.759Z,6480.00
2023-05-09T14:32:30.838Z,6764.00
2023-05-09T14:33:30.926Z,6892.00
2023-05-09T14:34:31.029Z,6928.00
2023-05-09T14:35:31.196Z,6980.00
2023-05-09T14:36:31.193Z,6884.00
2023-05-09T14:37:32.008Z,6724.00
2023-05-09T14:38:31.357Z,6536.00
2023-05-09T14:39:31.416Z,6332.00
2023-05-09T14:40:31.535Z,6148.00
2023-05-09T14:41:31.568Z,5964.00
2023-05-09T14:42:31.742Z,5760.00
2023-05-09T14:43:31.724Z,5516.00
2023-05-09T14:44:31.803Z,5380.00
2023-05-09T14:45:31.925Z,5344.00
2023-05-09T14:46:31.973Z,5260.00
2023-05-09T14:47:32.051Z,5136.00
2023-05-09T14:48:32.137Z,5040.00
2023-05-09T14:49:32.207Z,4956.00
2023-05-09T14:50:32.331Z,4860.00
2023-05-09T14:51:32.377Z,4820.00
2023-05-09T14:52:32.485Z,4832.00
2023-05-09T14:53:32.521Z,4860.00
2023-05-09T14:54:32.616Z,4856.00
2023-05-09T14:55:32.714Z,4840.00
2023-05-09T14:56:32.776Z,4804.00
2023-05-09T14:57:32.846Z,4704.00
2023-05-09T14:58:32.949Z,4484.00
2023-05-09T14:59:34.253Z,4328.00
2023-05-09T15:00:33.082Z,4408.00
2023-05-09T15:01:33.183Z,4592.00
2023-05-09T15:02:33.252Z,4680.00
2023-05-09T15:03:33.275Z,4820.00
2023-05-09T15:04:33.577Z,5008.00
2023-05-09T15:05:33.457Z,5192.00
2023-05-09T15:06:33.502Z,5316.00
2023-05-09T15:07:33.588Z,5344.00
2023-05-09T15:08:33.673Z,5376.00
2023-05-09T15:09:33.755Z,5316.00
2023-05-09T15:10:33.858Z,5232.00
2023-05-09T15:11:46.799Z,5160.00
2023-05-09T15:12:34.033Z,5072.00
2023-05-09T15:13:34.124Z,4940.00
2023-05-09T15:14:34.192Z,4804.00
2023-05-09T15:15:34.298Z,4664.00
2023-05-09T15:16:34.361Z,4516.00
2023-05-09T15:17:34.424Z,4372.00
2023-05-09T15:18:34.525Z,4240.00
2023-05-09T15:19:34.617Z,4112.00
2023-05-09T15:20:34.717Z,4024.00
2023-05-09T15:21:34.764Z,3980.00
2023-05-09T15:22:34.850Z,3976.00
2023-05-09T15:23:34.976Z,3984.00
2023-05-09T15:24:35.022Z,4016.00
2023-05-09T15:25:35.117Z,4044.00
2023-05-09T15:26:35.185Z,4056.00
2023-05-09T15:27:35.298Z,4060.00
2023-05-09T15:28:35.328Z,4016.00
2023-05-09T15:29:35.378Z,3948.00
2023-05-09T15:30:37.344Z,3864.00
2023-05-09T15:31:35.663Z,3776.00
2023-05-09T15:32:35.990Z,3676.00
2023-05-09T15:33:35.695Z,3600.00
2023-05-09T15:34:35.766Z,3552.00
2023-05-09T15:35:35.880Z,3524.00
2023-05-09T15:36:35.955Z,3512.00
2023-05-09T15:37:36.031Z,3512.00
2023-05-09T15:38:36.115Z,3520.00
2023-05-09T15:39:36.186Z,3524.00
2023-05-09T15:40:36.278Z,3540.00
2023-05-09T15:41:36.321Z,3544.00
2023-05-09T15:42:36.411Z,3552.00
2023-05-09T15:43:36.489Z,3568.00
2023-05-09T15:44:36.658Z,3600.00
2023-05-09T15:45:36.663Z,3608.00
2023-05-09T15:46:36.772Z,3588.00
2023-05-09T15:47:36.906Z,3580.00
2023-05-09T15:48:36.939Z,3560.00
2023-05-09T15:49:36.978Z,3528.00
2023-05-09T15:50:37.118Z,3512.00
2023-05-09T15:51:37.131Z,3492.00
2023-05-09T15:52:37.220Z,3492.00
2023-05-09T15:53:37.306Z,3484.00
2023-05-09T15:54:37.437Z,3484.00
2023-05-09T15:55:37.464Z,3464.00
2023-05-09T15:56:37.560Z,3440.00
2023-05-09T15:57:37.666Z,3408.00
2023-05-09T15:58:37.742Z,3356.00
2023-05-09T15:59:37.821Z,3284.00
2023-05-09T16:00:37.930Z,3200.00
2023-05-09T16:01:38.022Z,3116.00
2023-05-09T16:02:38.140Z,3032.00
2023-05-09T16:03:38.231Z,2972.00
2023-05-09T16:04:38.224Z,2924.00
2023-05-09T16:05:38.334Z,2876.00
2023-05-09T16:06:38.402Z,2852.00
2023-05-09T16:07:38.487Z,2820.00
2023-05-09T16:08:38.568Z,2800.00
2023-05-09T16:09:38.667Z,2800.00
2023-05-09T16:10:38.802Z,2796.00
2023-05-09T16:11:38.811Z,2796.00
2023-05-09T16:12:38.911Z,2776.00
2023-05-09T16:13:39.087Z,2756.00
2023-05-09T16:14:39.087Z,2728.00
2023-05-09T16:15:39.153Z,2692.00
2023-05-09T16:16:39.282Z,2660.00
2023-05-09T16:17:39.290Z,2620.00
2023-05-09T16:18:39.376Z,2576.00
2023-05-09T16:19:39.453Z,2544.00
2023-05-09T16:20:39.568Z,2512.00
2023-05-09T16:21:39.639Z,2480.00
2023-05-09T16:22:39.681Z,2460.00
2023-05-09T16:23:39.764Z,2440.00
2023-05-09T16:24:39.858Z,2416.00
2023-05-09T16:25:39.957Z,2424.00
2023-05-09T16:26:40.034Z,2436.00
2023-05-09T16:27:40.120Z,2464.00
2023-05-09T16:28:40.172Z,2504.00
2023-05-09T16:29:40.243Z,2536.00
2023-05-09T16:30:40.358Z,2556.00
2023-05-09T16:31:40.427Z,2536.00
2023-05-09T16:32:40.508Z,2492.00
2023-05-09T16:33:40.556Z,2436.00
2023-05-09T16:34:40.645Z,2392.00
2023-05-09T16:35:40.746Z,2344.00
2023-05-09T16:36:40.787Z,2308.00
2023-05-09T16:37:40.876Z,2284.00
2023-05-09T16:38:40.960Z,2268.00
2023-05-09T16:39:41.032Z,2272.00
2023-05-09T16:40:41.115Z,2276.00
2023-05-09T16:41:41.164Z,2264.00
2023-05-09T16:42:42.895Z,2248.00
2023-05-09T16:43:41.313Z,2240.00
2023-05-09T16:44:41.403Z,2228.00
2023-05-09T16:45:41.541Z,2220.00
2023-05-09T16:46:41.568Z,2196.00
2023-05-09T16:47:41.696Z,2168.00
2023-05-09T16:48:41.743Z,2136.00
2023-05-09T16:49:41.833Z,2096.00
2023-05-09T16:50:41.943Z,2048.00
2023-05-09T16:51:41.999Z,1988.00
2023-05-09T16:52:42.087Z,1928.00
2023-05-09T16:53:42.175Z,1876.00
2023-05-09T16:54:42.259Z,1824.00
2023-05-09T16:55:42.358Z,1780.00
2023-05-09T16:56:42.409Z,1752.00
2023-05-09T16:57:42.504Z,1724.00
2023-05-09T16:58:42.573Z,1704.00
2023-05-09T16:59:42.661Z,1684.00
2023-05-09T17:00:42.761Z,1660.00
2023-05-09T17:01:42.860Z,1644.00
2023-05-09T17:02:42.941Z,1612.00
2023-05-09T17:03:43.002Z,1568.00
2023-05-09T17:04:43.092Z,1528.00
2023-05-09T17:05:43.133Z,1484.00
2023-05-09T17:06:43.225Z,1460.00
2023-05-09T17:07:43.312Z,1440.00
2023-05-09T17:08:43.363Z,1432.00
2023-05-09T17:09:43.460Z,1424.00
2023-05-09T17:10:43.587Z,1420.00
2023-05-09T17:11:43.621Z,1424.00
2023-05-09T17:12:43.732Z,1436.00
2023-05-09T17:13:43.765Z,1444.00
2023-05-09T17:14:44.786Z,1460.00
2023-05-09T17:15:43.963Z,1468.00
2023-05-09T17:16:44.016Z,1468.00
2023-05-09T17:17:44.130Z,1464.00
2023-05-09T17:18:44.160Z,1448.00
2023-05-09T17:19:44.276Z,1420.00
2023-05-09T17:20:44.339Z,1392.00
2023-05-09T17:21:44.384Z,1360.00
2023-05-09T17:22:44.437Z,1336.00
2023-05-09T17:23:44.521Z,1312.00
2023-05-09T17:24:44.599Z,1300.00
2023-05-09T17:25:44.715Z,1292.00
2023-05-09T17:26:44.762Z,1288.00
2023-05-09T17:27:44.848Z,1292.00
2023-05-09T17:28:44.933Z,1296.00
2023-05-09T17:29:45.015Z,1308.00
2023-05-09T17:30:45.104Z,1312.00
2023-05-09T17:31:45.157Z,1320.00
2023-05-09T17:32:45.246Z,1316.00
2023-05-09T17:33:45.284Z,1288.00
2023-05-09T17:34:45.360Z,1252.00
2023-05-09T17:35:45.460Z,1236.00
2023-05-09T17:36:45.489Z,1224.00
2023-05-09T17:37:45.599Z,1200.00
2023-05-09T17:38:45.666Z,1164.00
2023-05-09T17:39:45.755Z,1136.00
2023-05-09T17:40:45.848Z,1092.00
2023-05-09T17:41:45.917Z,1032.00
2023-05-09T17:42:45.991Z,968.00
2023-05-09T17:43:46.107Z,940.00
2023-05-09T17:44:46.180Z,900.00
2023-05-09T17:45:46.402Z,840.00
2023-05-09T17:46:46.371Z,804.00
2023-05-09T17:47:46.527Z,804.00
2023-05-09T17:48:46.530Z,828.00
2023-05-09T17:49:46.627Z,844.00
2023-05-09T17:50:46.741Z,840.00
2023-05-09T17:51:46.802Z,812.00
2023-05-09T17:52:46.883Z,792.00
2023-05-09T17:53:47.199Z,792.00
2023-05-09T17:54:47.034Z,816.00
2023-05-09T17:55:47.122Z,800.00
2023-05-09T17:56:47.168Z,760.00
2023-05-09T17:57:47.268Z,712.00
2023-05-09T17:58:47.317Z,672.00
2023-05-09T17:59:48.018Z,628.00
2023-05-09T18:00:47.506Z,564.00
2023-05-09T18:01:47.592Z,484.00
2023-05-09T18:02:47.720Z,388.00
2023-05-09T18:03:47.866Z,332.00
2023-05-09T18:04:47.792Z,348.00
2023-05-09T18:05:47.905Z,408.00
2023-05-09T18:06:47.953Z,452.00
2023-05-09T18:07:48.047Z,464.00
2023-05-09T18:08:48.118Z,448.00
2023-05-09T18:09:48.229Z,416.00
2023-05-09T18:10:48.320Z,384.00
2023-05-09T18:11:48.374Z,312.00
2023-05-09T18:12:48.573Z,272.00
2023-05-09T18:13:48.572Z,240.00
2023-05-09T18:14:48.629Z,228.00
2023-05-09T18:15:49.024Z,224.00
2023-05-09T18:16:48.775Z,220.00
2023-05-09T18:17:48.885Z,200.00
2023-05-09T18:18:48.971Z,200.00
2023-05-09T18:19:49.040Z,220.00
2023-05-09T18:20:49.136Z,248.00
2023-05-09T18:21:49.199Z,288.00
2023-05-09T18:22:49.302Z,324.00
2023-05-09T18:23:49.388Z,348.00
2023-05-09T18:24:49.474Z,360.00
2023-05-09T18:25:49.561Z,368.00
2023-05-09T18:26:49.605Z,368.00
2023-05-09T18:27:49.703Z,364.00
2023-05-09T18:28:49.787Z,364.00
2023-05-09T18:29:49.881Z,352.00
2023-05-09T18:30:49.982Z,348.00
2023-05-09T18:31:50.070Z,340.00
2023-05-09T18:32:50.129Z,332.00
2023-05-09T18:33:50.791Z,320.00
2023-05-09T18:34:50.256Z,308.00
2023-05-09T18:35:50.358Z,300.00
2023-05-09T18:36:50.415Z,284.00
2023-05-09T18:37:50.509Z,268.00
2023-05-09T18:38:50.601Z,256.00
2023-05-09T18:39:50.696Z,240.00
2023-05-09T18:40:50.790Z,228.00
2023-05-09T18:41:50.849Z,208.00
2023-05-09T18:42:50.942Z,192.00
2023-05-09T18:43:51.002Z,176.00
2023-05-09T18:44:51.071Z,160.00
2023-05-09T18:45:51.525Z,144.00
2023-05-09T18:46:51.282Z,120.00
2023-05-09T18:47:51.370Z,92.00
2023-05-09T18:48:51.425Z,68.00
2023-05-09T18:49:51.492Z,56.00
2023-05-09T18:50:51.577Z,60.00
2023-05-09T18:51:51.620Z,56.00
2023-05-09T18:52:51.703Z,60.00
2023-05-09T18:53:51.799Z,60.00
2023-05-09T18:54:51.869Z,56.00
2023-05-09T18:55:51.989Z,56.00
2023-05-09T18:56:52.034Z,52.00
2023-05-09T18:57:52.114Z,48.00
2023-05-09T18:58:52.201Z,48.00
2023-05-09T18:59:52.262Z,40.00
2023-05-09T19:00:52.397Z,36.00
2023-05-09T19:01:52.417Z,32.00
2023-05-09T19:02:52.544Z,32.00
2023-05-09T19:03:52.591Z,24.00
2023-05-09T19:04:52.661Z,20.00
2023-05-09T19:05:52.750Z,12.00
2023-05-09T19:06:52.799Z,8.00
2023-05-09T19:07:54.132Z,8.00
2023-05-09T19:08:52.994Z,4.00
2023-05-09T19:09:53.066Z,8.00
2023-05-09T19:10:53.186Z,8.00
2023-05-09T19:11:53.232Z,8.00
2023-05-09T19:12:53.402Z,4.00
2023-05-09T19:13:53.398Z,4.00
2023-05-09T19:14:53.463Z,4.00
2023-05-09T19:15:53.583Z,4.00
2023-05-09T19:16:53.682Z,4.00
2023-05-09T19:17:53.823Z,4.00
2023-05-09T19:18:53.772Z,8.00
2023-05-09T19:19:53.878Z,4.00
2023-05-09T19:20:53.995Z,4.00
2023-05-09T19:21:54.046Z,4.00
2023-05-09T19:22:54.127Z,4.00
2023-05-09T19:23:54.232Z,4.00
2023-05-09T19:24:54.310Z,4.00
2023-05-09T19:25:54.428Z,0.00
2023-05-09T19:26:54.490Z,4.00
2023-05-09T19:27:54.589Z,4.00
2023-05-09T19:28:54.670Z,4.00
2023-05-09T19:29:55.622Z,0.00
2023-05-09T19:30:54.990Z,0.00
2023-05-09T19:31:54.926Z,0.00
2023-05-09T19:32:55.082Z,0.00
2023-05-09T19:33:55.097Z,0.00
2023-05-09T19:34:55.172Z,0.00
2023-05-09T19:35:55.288Z,0.00
2023-05-09T19:36:55.355Z,0.00
2023-05-09T19:37:55.454Z,0.00
2023-05-09T19:38:55.503Z,0.00
2023-05-09T19:39:55.599Z,0.00
2023-05-09T19:40:55.678Z,0.00
2023-05-09T19:41:55.868Z,0.00
2023-05-09T19:42:55.835Z,0.00
2023-05-09T19:43:55.888Z,0.00
2023-05-09T19:44:55.979Z,0.00
2023-05-09T19:45:56.144Z,0.00
2023-05-09T19:46:56.138Z,0.00
2023-05-09T19:47:56.246Z,0.00
2023-05-09T19:48:56.326Z,0.00
2023-05-09T19:49:56.404Z,0.00
2023-05-09T19:50:56.494Z,0.00
2023-05-09T19:51:56.542Z,0.00
2023-05-09T19:52:56.639Z,0.00
2023-05-09T19:53:56.710Z,0.00
2023-05-09T19:54:56.791Z,0.00
2023-05-09T19:55:56.929Z,0.00
2023-05-09T19:56:56.953Z,0.00
2023-05-09T19:57:57.028Z,0.00
2023-05-09T19:58:57.113Z,0.00
2023-05-09T19:59:57.222Z,0.00
2023-05-09T20:00:57.312Z,0.00
2023-05-09T20:01:57.458Z,0.00
2023-05-09T20:02:57.533Z,0.00
2023-05-09T20:03:57.623Z,0.00
2023-05-09T20:04:57.625Z,0.00
2023-05-09T20:05:57.749Z,0.00
2023-05-09T20:06:57.795Z,0.00
2023-05-09T20:07:57.889Z,0.00
2023-05-09T20:08:57.994Z,0.00
2023-05-09T20:09:58.065Z,0.00
2023-05-09T20:10:58.169Z,0.00
2023-05-09T20:11:58.236Z,0.00
2023-05-09T20:12:58.377Z,0.00
2023-05-09T20:13:58.394Z,0.00
2023-05-09T20:14:58.466Z,0.00
2023-05-09T20:15:58.637Z,0.00
2023-05-09T20:16:58.654Z,0.00
2023-05-09T20:17:58.836Z,0.00
2023-05-09T20:18:58.809Z,0.00
2023-05-09T20:19:58.906Z,0.00
2023-05-09T20:20:59.006Z,0.00
2023-05-09T20:21:59.100Z,0.00
2023-05-09T20:22:59.153Z,0.00
2023-05-09T20:23:59.243Z,0.00
2023-05-09T20:24:59.326Z,0.00
2023-05-09T20:25:59.440Z,0.00
2023-05-09T20:26:59.561Z,0.00
2023-05-09T20:27:59.560Z,0.00
2023-05-09T20:28:59.619Z,0.00
2023-05-09T20:29:59.715Z,0.00
2023-05-09T20:30:59.815Z,0.00
2023-05-09T20:31:59.998Z,0.00
2023-05-09T20:33:00.063Z,0.00
2023-05-09T20:34:00.112Z,0.00
2023-05-09T20:35:00.154Z,0.00
2023-05-09T20:36:00.246Z,0.00
2023-05-09T20:37:00.299Z,0.00
2023-05-09T20:38:00.392Z,0.00
2023-05-09T20:39:00.479Z,0.00
2023-05-09T20:40:00.594Z,0.00
2023-05-09T20:41:00.672Z,0.00
2023-05-09T20:42:00.726Z,0.00
2023-05-09T20:43:00.807Z,0.00
2023-05-09T20:44:00.901Z,0.00
2023-05-09T20:45:00.984Z,0.00
2023-05-09T20:46:01.220Z,0.00
2023-05-09T20:47:01.143Z,0.00
2023-05-09T20:48:01.298Z,0.00
2023-05-09T20:49:01.323Z,0.00
2023-05-09T20:50:01.438Z,0.00
2023-05-09T20:51:01.516Z,0.00
2023-05-09T20:52:01.576Z,0.00
2023-05-09T20:53:01.680Z,0.00
2023-05-09T20:54:01.746Z,0.00
2023-05-09T20:55:01.842Z,0.00
2023-05-09T20:56:01.954Z,0.00
2023-05-09T20:57:02.024Z,0.00
2023-05-09T20:58:02.130Z,0.00
2023-05-09T20:59:02.203Z,0.00
2023-05-09T21:00:02.263Z,0.00
2023-05-09T21:01:02.369Z,0.00
2023-05-09T21:02:02.455Z,0.00
2023-05-09T21:03:02.626Z,0.00
2023-05-09T21:04:02.587Z,0.00
2023-05-09T21:05:02.676Z,0.00
2023-05-09T21:06:02.774Z,0.00
2023-05-09T21:07:02.870Z,0.00
2023-05-09T21:08:02.954Z,0.00
2023-05-09T21:09:03.027Z,0.00
2023-05-09T21:10:03.114Z,0.00
2023-05-09T21:11:03.216Z,0.00
2023-05-09T21:12:03.259Z,0.00
2023-05-09T21:13:03.380Z,0.00
2023-05-09T21:14:03.411Z,0.00
2023-05-09T21:15:03.506Z,0.00
2023-05-09T21:16:03.601Z,0.00
2023-05-09T21:17:03.674Z,0.00
2023-05-09T21:18:03.755Z,0.00
2023-05-09T21:19:03.828Z,0.00
2023-05-09T21:20:03.922Z,0.00
2023-05-09T21:21:04.029Z,0.00
2023-05-09T21:22:04.089Z,0.00
2023-05-09T21:23:04.172Z,0.00
2023-05-09T21:24:04.279Z,0.00
2023-05-09T21:25:04.346Z,0.00
2023-05-09T21:26:04.461Z,0.00
2023-05-09T21:27:04.504Z,0.00
2023-05-09T21:28:04.567Z,0.00
2023-05-09T21:29:04.650Z,0.00
2023-05-09T21:30:04.786Z,0.00
2023-05-09T21:31:04.910Z,0.00
2023-05-09T21:32:04.925Z,0.00
2023-05-09T21:33:05.119Z,0.00
2023-05-09T21:34:05.119Z,0.00
2023-05-09T21:35:05.169Z,0.00
2023-05-09T21:36:05.291Z,0.00
2023-05-09T21:37:05.357Z,0.00
2023-05-09T21:38:05.400Z,0.00
2023-05-09T21:39:05.507Z,0.00
2023-05-09T21:40:05.967Z,0.00
2023-05-09T21:41:05.713Z,0.00
2023-05-09T21:42:05.750Z,0.00
2023-05-09T21:43:05.852Z,0.00
2023-05-09T21:44:05.945Z,0.00
2023-05-09T21:45:06.021Z,0.00
2023-05-09T21:46:06.180Z,0.00
2023-05-09T21:47:06.278Z,0.00
2023-05-09T21:48:06.271Z,0.00
2023-05-09T21:49:06.341Z,0.00
2023-05-09T21:50:06.392Z,0.00
2023-05-09T21:51:06.516Z,0.00
2023-05-09T21:52:06.573Z,0.00
2023-05-09T21:53:06.671Z,0.00
2023-05-09T21:54:06.759Z,0.00
2023-05-09T21:55:06.848Z,0.00
2023-05-09T21:56:06.922Z,0.00
2023-05-09T21:57:06.978Z,0.00
2023-05-09T21:58:07.042Z,0.00
2023-05-09T21:59:07.135Z,0.00
2023-05-09T22:00:07.204Z,0.00
2023-05-09T22:01:07.320Z,0.00
2023-05-09T22:02:07.518Z,0.00
2023-05-09T22:03:07.667Z,0.00
2023-05-09T22:04:07.652Z,0.00
2023-05-09T22:05:07.661Z,0.00
2023-05-09T22:06:07.786Z,0.00
2023-05-09T22:07:07.829Z,0.00
2023-05-09T22:08:07.910Z,0.00
2023-05-09T22:09:08.024Z,0.00
2023-05-09T22:10:08.084Z,0.00
2023-05-09T22:11:08.264Z,0.00
2023-05-09T22:12:08.233Z,0.00
2023-05-09T22:13:08.420Z,0.00
2023-05-09T22:14:08.412Z,0.00
2023-05-09T22:15:08.495Z,0.00
2023-05-09T22:16:08.622Z,0.00
2023-05-09T22:17:08.687Z,0.00
2023-05-09T22:18:08.815Z,0.00
2023-05-09T22:19:08.858Z,0.00
2023-05-09T22:20:08.910Z,0.00
2023-05-09T22:21:09.032Z,0.00
2023-05-09T22:22:09.081Z,0.00
2023-05-09T22:23:09.170Z,0.00
2023-05-09T22:24:09.247Z,0.00
2023-05-09T22:25:09.342Z,0.00
2023-05-09T22:26:09.452Z,0.00
2023-05-09T22:27:09.517Z,0.00
2023-05-09T22:28:09.601Z,0.00
2023-05-09T22:29:09.695Z,0.00
2023-05-09T22:30:09.781Z,0.00
2023-05-09T22:31:09.902Z,0.00
2023-05-09T22:32:10.099Z,0.00
2023-05-09T22:33:10.094Z,0.00
2023-05-09T22:34:10.117Z,0.00
2023-05-09T22:35:10.239Z,0.00
2023-05-09T22:36:10.304Z,0.00
2023-05-09T22:37:10.374Z,0.00
2023-05-09T22:38:10.457Z,0.00
2023-05-09T22:39:10.547Z,0.00
2023-05-09T22:40:10.636Z,0.00
2023-05-09T22:41:10.767Z,0.00
2023-05-09T22:42:10.817Z,0.00
2023-05-09T22:43:10.914Z,0.00
2023-05-09T22:44:11.001Z,0.00
2023-05-09T22:45:11.107Z,0.00
2023-05-09T22:46:11.231Z,0.00
2023-05-09T22:47:11.247Z,0.00
2023-05-09T22:48:11.366Z,0.00
2023-05-09T22:49:11.403Z,0.00
2023-05-09T22:50:11.489Z,0.00
2023-05-09T22:51:11.592Z,0.00
2023-05-09T22:52:11.664Z,0.00
2023-05-09T22:53:11.746Z,0.00
2023-05-09T22:54:11.792Z,0.00
2023-05-09T22:55:11.894Z,0.00
2023-05-09T22:56:11.957Z,0.00
2023-05-09T22:57:12.032Z,0.00
2023-05-09T22:58:12.122Z,0.00
2023-05-09T22:59:12.217Z,0.00
2023-05-09T23:00:12.302Z,0.00
2023-05-09T23:01:12.455Z,0.00
2023-05-09T23:02:12.560Z,0.00
2023-05-09T23:03:12.595Z,0.00
2023-05-09T23:04:12.616Z,0.00
2023-05-09T23:05:12.733Z,0.00
2023-05-09T23:06:12.806Z,0.00
2023-05-09T23:07:12.864Z,0.00
2023-05-09T23:08:12.916Z,0.00
2023-05-09T23:09:12.999Z,0.00
2023-05-09T23:10:13.132Z,0.00
2023-05-09T23:11:13.215Z,0.00
2023-05-09T23:12:13.258Z,0.00
2023-05-09T23:13:13.407Z,0.00
2023-05-09T23:14:13.407Z,0.00
2023-05-09T23:15:13.500Z,0.00
2023-05-09T23:16:13.612Z,0.00
2023-05-09T23:17:13.684Z,0.00
2023-05-09T23:18:13.795Z,0.00
2023-05-09T23:19:13.859Z,0.00
2023-05-09T23:20:14.231Z,0.00
2023-05-09T23:21:14.029Z,0.00
2023-05-09T23:22:14.071Z,0.00
2023-05-09T23:23:14.181Z,0.00
2023-05-09T23:24:14.260Z,0.00
2023-05-09T23:25:14.370Z,0.00
2023-05-09T23:26:14.428Z,0.00
2023-05-09T23:27:14.515Z,0.00
2023-05-09T23:28:14.586Z,0.00
2023-05-09T23:29:14.698Z,0.00
2023-05-09T23:30:14.941Z,0.00
2023-05-09T23:31:14.910Z,0.00
2023-05-09T23:32:14.927Z,0.00
2023-05-09T23:33:15.026Z,0.00
2023-05-09T23:34:15.112Z,0.00
2023-05-09T23:35:15.201Z,0.00
2023-05-09T23:36:15.306Z,0.00
2023-05-09T23:37:15.429Z,0.00
2023-05-09T23:38:15.454Z,0.00
2023-05-09T23:39:15.577Z,0.00
2023-05-09T23:40:16.048Z,0.00
2023-05-09T23:41:15.712Z,0.00
2023-05-09T23:42:15.767Z,0.00
2023-05-09T23:43:15.859Z,0.00
2023-05-09T23:44:15.918Z,0.00
2023-05-09T23:45:16.033Z,0.00
2023-05-09T23:46:16.137Z,0.00
2023-05-09T23:47:16.188Z,0.00
2023-05-09T23:48:16.270Z,0.00
2023-05-09T23:49:16.360Z,0.00
2023-05-09T23:50:16.704Z,0.00
2023-05-09T23:51:16.565Z,0.00
2023-05-09T23:52:16.620Z,0.00
2023-05-09T23:53:16.723Z,0.00
2023-05-09T23:54:16.781Z,0.00
2023-05-09T23:55:16.864Z,0.00
2023-05-09T23:56:16.996Z,0.00
2023-05-09T23:57:17.058Z,0.00
2023-05-09T23:58:17.118Z,0.00
2023-05-09T23:59:17.209Z,0.00
